sensor_id;sensor_type;location;lat;lon;timestamp;P1;durP1;ratioP1;P2;durP2;ratioP2
6983;SDS011;3532;51.118;7.210;2022-09-21T00:01:42;2.93;;;2.60;;
6983;SDS011;3532;51.118;7.210;2022-09-21T00:04:08;4.37;;;3.03;;
6983;SDS011;3532;51.118;7.210;2022-09-21T00:06:34;4.33;;;2.77;;
6983;SDS011;3532;51.118;7.210;2022-09-21T00:08:59;3.73;;;2.90;;
6983;SDS011;3532;51.118;7.210;2022-09-21T00:11:28;5.23;;;3.10;;
6983;SDS011;3532;51.118;7.210;2022-09-21T00:13:55;4.63;;;2.97;;
6983;SDS011;3532;51.118;7.210;2022-09-21T00:16:24;5.83;;;2.90;;
6983;SDS011;3532;51.118;7.210;2022-09-21T00:18:50;3.30;;;2.63;;
6983;SDS011;3532;51.118;7.210;2022-09-21T00:21:15;3.80;;;2.93;;
6983;SDS011;3532;51.118;7.210;2022-09-21T00:23:41;2.80;;;2.13;;
6983;SDS011;3532;51.118;7.210;2022-09-21T00:26:11;6.73;;;3.00;;
6983;SDS011;3532;51.118;7.210;2022-09-21T00:28:38;3.37;;;3.10;;
6983;SDS011;3532;51.118;7.210;2022-09-21T00:31:05;3.73;;;2.83;;
6983;SDS011;3532;51.118;7.210;2022-09-21T00:33:32;3.50;;;2.83;;
6983;SDS011;3532;51.118;7.210;2022-09-21T00:36:02;13.33;;;3.30;;
6983;SDS011;3532;51.118;7.210;2022-09-21T00:38:29;3.83;;;2.80;;
6983;SDS011;3532;51.118;7.210;2022-09-21T00:40:54;4.97;;;2.90;;
6983;SDS011;3532;51.118;7.210;2022-09-21T00:43:19;3.03;;;2.60;;
6983;SDS011;3532;51.118;7.210;2022-09-21T00:45:45;5.37;;;3.10;;
6983;SDS011;3532;51.118;7.210;2022-09-21T00:48:12;2.60;;;2.40;;
6983;SDS011;3532;51.118;7.210;2022-09-21T00:50:40;6.03;;;3.47;;
6983;SDS011;3532;51.118;7.210;2022-09-21T00:53:08;5.00;;;3.07;;
6983;SDS011;3532;51.118;7.210;2022-09-21T00:55:35;3.67;;;2.67;;
6983;SDS011;3532;51.118;7.210;2022-09-21T00:58:05;3.50;;;2.60;;
6983;SDS011;3532;51.118;7.210;2022-09-21T01:00:33;5.80;;;3.20;;
6983;SDS011;3532;51.118;7.210;2022-09-21T01:02:59;2.73;;;2.53;;
6983;SDS011;3532;51.118;7.210;2022-09-21T01:05:26;4.70;;;2.83;;
6983;SDS011;3532;51.118;7.210;2022-09-21T01:07:51;3.10;;;2.77;;
6983;SDS011;3532;51.118;7.210;2022-09-21T01:10:17;2.63;;;2.43;;
6983;SDS011;3532;51.118;7.210;2022-09-21T01:12:50;4.10;;;2.90;;
6983;SDS011;3532;51.118;7.210;2022-09-21T01:21:03;2.83;;;2.53;;
6983;SDS011;3532;51.118;7.210;2022-09-21T01:23:39;3.03;;;2.57;;
6983;SDS011;3532;51.118;7.210;2022-09-21T01:31:45;3.97;;;2.90;;
6983;SDS011;3532;51.118;7.210;2022-09-21T01:37:02;4.40;;;3.30;;
6983;SDS011;3532;51.118;7.210;2022-09-21T01:39:31;5.13;;;3.33;;
6983;SDS011;3532;51.118;7.210;2022-09-21T01:41:58;3.60;;;2.73;;
6983;SDS011;3532;51.118;7.210;2022-09-21T01:44:25;2.70;;;2.47;;
6983;SDS011;3532;51.118;7.210;2022-09-21T01:46:52;3.33;;;2.80;;
6983;SDS011;3532;51.118;7.210;2022-09-21T01:49:26;3.57;;;2.47;;
6983;SDS011;3532;51.118;7.210;2022-09-21T01:52:08;4.80;;;3.17;;
6983;SDS011;3532;51.118;7.210;2022-09-21T01:54:38;3.20;;;2.50;;
6983;SDS011;3532;51.118;7.210;2022-09-21T01:57:13;5.00;;;2.63;;
6983;SDS011;3532;51.118;7.210;2022-09-21T01:59:45;4.27;;;2.50;;
6983;SDS011;3532;51.118;7.210;2022-09-21T02:02:19;2.93;;;2.63;;
6983;SDS011;3532;51.118;7.210;2022-09-21T02:04:52;3.13;;;2.70;;
6983;SDS011;3532;51.118;7.210;2022-09-21T02:07:18;3.53;;;2.50;;
6983;SDS011;3532;51.118;7.210;2022-09-21T02:09:43;2.83;;;2.53;;
6983;SDS011;3532;51.118;7.210;2022-09-21T02:12:11;4.97;;;2.70;;
6983;SDS011;3532;51.118;7.210;2022-09-21T02:14:36;4.37;;;3.10;;
6983;SDS011;3532;51.118;7.210;2022-09-21T02:20:08;3.30;;;2.77;;
6983;SDS011;3532;51.118;7.210;2022-09-21T02:22:52;3.20;;;2.40;;
6983;SDS011;3532;51.118;7.210;2022-09-21T02:25:29;2.77;;;2.10;;
6983;SDS011;3532;51.118;7.210;2022-09-21T02:28:06;2.70;;;2.40;;
6983;SDS011;3532;51.118;7.210;2022-09-21T02:30:39;4.03;;;2.43;;
6983;SDS011;3532;51.118;7.210;2022-09-21T02:33:22;4.03;;;2.60;;
6983;SDS011;3532;51.118;7.210;2022-09-21T02:38:35;5.00;;;2.83;;
6983;SDS011;3532;51.118;7.210;2022-09-21T02:41:10;5.50;;;2.87;;
6983;SDS011;3532;51.118;7.210;2022-09-21T02:43:46;4.00;;;2.70;;
6983;SDS011;3532;51.118;7.210;2022-09-21T02:46:21;2.33;;;2.13;;
6983;SDS011;3532;51.118;7.210;2022-09-21T02:48:50;6.63;;;3.10;;
6983;SDS011;3532;51.118;7.210;2022-09-21T02:51:20;4.17;;;2.87;;
6983;SDS011;3532;51.118;7.210;2022-09-21T02:53:49;2.90;;;2.70;;
6983;SDS011;3532;51.118;7.210;2022-09-21T02:56:17;3.93;;;2.97;;
6983;SDS011;3532;51.118;7.210;2022-09-21T02:58:44;3.63;;;3.17;;
6983;SDS011;3532;51.118;7.210;2022-09-21T03:01:11;3.37;;;3.07;;
6983;SDS011;3532;51.118;7.210;2022-09-21T03:03:38;2.23;;;2.03;;
6983;SDS011;3532;51.118;7.210;2022-09-21T03:06:03;3.10;;;2.80;;
6983;SDS011;3532;51.118;7.210;2022-09-21T03:08:29;4.37;;;2.80;;
6983;SDS011;3532;51.118;7.210;2022-09-21T03:10:54;3.70;;;2.80;;
6983;SDS011;3532;51.118;7.210;2022-09-21T03:13:21;3.13;;;2.83;;
6983;SDS011;3532;51.118;7.210;2022-09-21T03:15:47;4.13;;;3.23;;
6983;SDS011;3532;51.118;7.210;2022-09-21T03:18:12;3.03;;;2.73;;
6983;SDS011;3532;51.118;7.210;2022-09-21T03:20:39;3.20;;;2.57;;
6983;SDS011;3532;51.118;7.210;2022-09-21T03:23:05;2.93;;;2.63;;
6983;SDS011;3532;51.118;7.210;2022-09-21T03:25:31;3.43;;;3.17;;
6983;SDS011;3532;51.118;7.210;2022-09-21T03:27:57;4.20;;;2.53;;
6983;SDS011;3532;51.118;7.210;2022-09-21T03:30:23;3.80;;;2.73;;
6983;SDS011;3532;51.118;7.210;2022-09-21T03:32:50;3.33;;;3.00;;
6983;SDS011;3532;51.118;7.210;2022-09-21T03:35:19;3.97;;;3.13;;
6983;SDS011;3532;51.118;7.210;2022-09-21T03:37:45;2.50;;;2.30;;
6983;SDS011;3532;51.118;7.210;2022-09-21T03:40:11;3.03;;;2.73;;
6983;SDS011;3532;51.118;7.210;2022-09-21T03:42:37;2.57;;;2.37;;
6983;SDS011;3532;51.118;7.210;2022-09-21T03:45:03;3.83;;;2.80;;
6983;SDS011;3532;51.118;7.210;2022-09-21T03:47:28;3.27;;;2.50;;
6983;SDS011;3532;51.118;7.210;2022-09-21T03:49:54;3.03;;;2.60;;
6983;SDS011;3532;51.118;7.210;2022-09-21T03:52:19;4.37;;;2.70;;
6983;SDS011;3532;51.118;7.210;2022-09-21T03:54:44;4.73;;;2.97;;
6983;SDS011;3532;51.118;7.210;2022-09-21T03:57:10;3.53;;;2.80;;
6983;SDS011;3532;51.118;7.210;2022-09-21T03:59:36;3.93;;;3.33;;
6983;SDS011;3532;51.118;7.210;2022-09-21T04:02:01;2.90;;;2.70;;
6983;SDS011;3532;51.118;7.210;2022-09-21T04:04:26;4.77;;;2.90;;
6983;SDS011;3532;51.118;7.210;2022-09-21T04:06:51;3.47;;;3.17;;
6983;SDS011;3532;51.118;7.210;2022-09-21T04:09:17;3.20;;;2.77;;
6983;SDS011;3532;51.118;7.210;2022-09-21T04:11:43;3.00;;;2.80;;
6983;SDS011;3532;51.118;7.210;2022-09-21T04:14:10;4.33;;;3.20;;
6983;SDS011;3532;51.118;7.210;2022-09-21T04:16:36;3.90;;;3.50;;
6983;SDS011;3532;51.118;7.210;2022-09-21T04:19:01;3.17;;;2.97;;
6983;SDS011;3532;51.118;7.210;2022-09-21T04:21:27;3.33;;;3.00;;
6983;SDS011;3532;51.118;7.210;2022-09-21T04:23:52;4.90;;;3.03;;
6983;SDS011;3532;51.118;7.210;2022-09-21T04:26:28;3.60;;;3.30;;
6983;SDS011;3532;51.118;7.210;2022-09-21T04:28:55;5.23;;;3.50;;
6983;SDS011;3532;51.118;7.210;2022-09-21T04:31:21;6.00;;;3.40;;
6983;SDS011;3532;51.118;7.210;2022-09-21T04:33:48;3.57;;;3.20;;
6983;SDS011;3532;51.118;7.210;2022-09-21T04:36:14;8.30;;;4.60;;
6983;SDS011;3532;51.118;7.210;2022-09-21T04:38:40;3.00;;;2.80;;
6983;SDS011;3532;51.118;7.210;2022-09-21T04:41:06;5.10;;;3.20;;
6983;SDS011;3532;51.118;7.210;2022-09-21T04:43:31;4.17;;;3.10;;
6983;SDS011;3532;51.118;7.210;2022-09-21T04:45:57;3.43;;;3.13;;
6983;SDS011;3532;51.118;7.210;2022-09-21T04:48:22;4.03;;;3.40;;
6983;SDS011;3532;51.118;7.210;2022-09-21T04:50:48;3.53;;;3.13;;
6983;SDS011;3532;51.118;7.210;2022-09-21T04:53:14;3.57;;;3.27;;
6983;SDS011;3532;51.118;7.210;2022-09-21T04:55:39;4.40;;;3.53;;
6983;SDS011;3532;51.118;7.210;2022-09-21T04:58:04;3.77;;;3.20;;
6983;SDS011;3532;51.118;7.210;2022-09-21T05:00:30;3.90;;;3.60;;
6983;SDS011;3532;51.118;7.210;2022-09-21T05:02:55;4.10;;;3.30;;
6983;SDS011;3532;51.118;7.210;2022-09-21T05:05:22;6.77;;;4.43;;
6983;SDS011;3532;51.118;7.210;2022-09-21T05:07:47;4.37;;;3.10;;
6983;SDS011;3532;51.118;7.210;2022-09-21T05:10:12;3.70;;;3.40;;
6983;SDS011;3532;51.118;7.210;2022-09-21T05:12:38;3.77;;;3.40;;
6983;SDS011;3532;51.118;7.210;2022-09-21T05:15:03;3.47;;;3.17;;
6983;SDS011;3532;51.118;7.210;2022-09-21T05:17:29;7.00;;;3.63;;
6983;SDS011;3532;51.118;7.210;2022-09-21T05:19:55;7.90;;;3.73;;
6983;SDS011;3532;51.118;7.210;2022-09-21T05:22:20;4.53;;;3.60;;
6983;SDS011;3532;51.118;7.210;2022-09-21T05:24:46;5.33;;;4.30;;
6983;SDS011;3532;51.118;7.210;2022-09-21T05:27:11;4.23;;;3.33;;
6983;SDS011;3532;51.118;7.210;2022-09-21T05:29:37;5.33;;;3.87;;
6983;SDS011;3532;51.118;7.210;2022-09-21T05:35:06;4.73;;;3.27;;
6983;SDS011;3532;51.118;7.210;2022-09-21T05:40:05;4.23;;;3.70;;
6983;SDS011;3532;51.118;7.210;2022-09-21T05:42:31;4.13;;;3.63;;
6983;SDS011;3532;51.118;7.210;2022-09-21T05:44:57;5.37;;;3.63;;
6983;SDS011;3532;51.118;7.210;2022-09-21T05:50:16;6.37;;;3.90;;
6983;SDS011;3532;51.118;7.210;2022-09-21T06:03:29;9.07;;;3.87;;
6983;SDS011;3532;51.118;7.210;2022-09-21T06:05:55;6.13;;;3.60;;
6983;SDS011;3532;51.118;7.210;2022-09-21T06:08:21;4.47;;;3.63;;
6983;SDS011;3532;51.118;7.210;2022-09-21T06:10:47;6.57;;;4.30;;
6983;SDS011;3532;51.118;7.210;2022-09-21T06:13:12;3.57;;;3.27;;
6983;SDS011;3532;51.118;7.210;2022-09-21T06:15:38;7.73;;;4.27;;
6983;SDS011;3532;51.118;7.210;2022-09-21T06:18:04;3.63;;;3.33;;
6983;SDS011;3532;51.118;7.210;2022-09-21T06:20:30;3.40;;;3.03;;
6983;SDS011;3532;51.118;7.210;2022-09-21T06:22:59;3.93;;;3.20;;
6983;SDS011;3532;51.118;7.210;2022-09-21T06:25:26;5.30;;;3.90;;
6983;SDS011;3532;51.118;7.210;2022-09-21T06:27:52;5.03;;;3.57;;
6983;SDS011;3532;51.118;7.210;2022-09-21T06:30:17;5.97;;;3.73;;
6983;SDS011;3532;51.118;7.210;2022-09-21T06:32:42;3.80;;;3.43;;
6983;SDS011;3532;51.118;7.210;2022-09-21T06:35:08;4.00;;;3.47;;
6983;SDS011;3532;51.118;7.210;2022-09-21T06:37:33;4.50;;;3.53;;
6983;SDS011;3532;51.118;7.210;2022-09-21T06:39:58;4.43;;;3.47;;
6983;SDS011;3532;51.118;7.210;2022-09-21T06:42:24;5.57;;;3.87;;
6983;SDS011;3532;51.118;7.210;2022-09-21T06:44:51;4.47;;;3.50;;
6983;SDS011;3532;51.118;7.210;2022-09-21T06:47:16;5.03;;;3.43;;
6983;SDS011;3532;51.118;7.210;2022-09-21T06:49:42;5.47;;;3.27;;
6983;SDS011;3532;51.118;7.210;2022-09-21T06:52:07;5.67;;;3.07;;
6983;SDS011;3532;51.118;7.210;2022-09-21T06:54:32;3.60;;;3.30;;
6983;SDS011;3532;51.118;7.210;2022-09-21T06:56:58;4.77;;;3.63;;
6983;SDS011;3532;51.118;7.210;2022-09-21T06:59:23;4.60;;;3.70;;
6983;SDS011;3532;51.118;7.210;2022-09-21T07:01:49;5.07;;;3.13;;
6983;SDS011;3532;51.118;7.210;2022-09-21T07:04:14;3.33;;;3.00;;
6983;SDS011;3532;51.118;7.210;2022-09-21T07:06:39;4.90;;;2.90;;
6983;SDS011;3532;51.118;7.210;2022-09-21T07:09:05;5.53;;;3.50;;
6983;SDS011;3532;51.118;7.210;2022-09-21T07:11:30;5.50;;;3.20;;
6983;SDS011;3532;51.118;7.210;2022-09-21T07:13:55;4.93;;;3.73;;
6983;SDS011;3532;51.118;7.210;2022-09-21T07:16:22;4.40;;;3.43;;
6983;SDS011;3532;51.118;7.210;2022-09-21T07:18:48;5.00;;;3.17;;
6983;SDS011;3532;51.118;7.210;2022-09-21T07:21:14;3.10;;;2.80;;
6983;SDS011;3532;51.118;7.210;2022-09-21T07:23:39;4.17;;;3.43;;
6983;SDS011;3532;51.118;7.210;2022-09-21T07:26:06;3.37;;;3.07;;
6983;SDS011;3532;51.118;7.210;2022-09-21T07:28:34;4.43;;;3.20;;
6983;SDS011;3532;51.118;7.210;2022-09-21T07:31:33;4.17;;;3.03;;
6983;SDS011;3532;51.118;7.210;2022-09-21T07:33:54;3.67;;;3.37;;
6983;SDS011;3532;51.118;7.210;2022-09-21T07:36:21;7.70;;;3.33;;
6983;SDS011;3532;51.118;7.210;2022-09-21T07:38:46;6.10;;;3.13;;
6983;SDS011;3532;51.118;7.210;2022-09-21T07:41:12;7.70;;;3.27;;
6983;SDS011;3532;51.118;7.210;2022-09-21T07:43:38;2.73;;;2.43;;
6983;SDS011;3532;51.118;7.210;2022-09-21T07:46:04;5.40;;;2.87;;
6983;SDS011;3532;51.118;7.210;2022-09-21T07:48:30;3.60;;;2.80;;
6983;SDS011;3532;51.118;7.210;2022-09-21T07:51:02;5.27;;;2.67;;
6983;SDS011;3532;51.118;7.210;2022-09-21T07:53:30;4.40;;;2.37;;
6983;SDS011;3532;51.118;7.210;2022-09-21T07:55:59;3.37;;;2.47;;
6983;SDS011;3532;51.118;7.210;2022-09-21T07:58:25;2.73;;;2.30;;
6983;SDS011;3532;51.118;7.210;2022-09-21T08:01:10;4.07;;;2.60;;
6983;SDS011;3532;51.118;7.210;2022-09-21T08:03:35;2.60;;;2.20;;
6983;SDS011;3532;51.118;7.210;2022-09-21T08:06:01;2.40;;;1.90;;
6983;SDS011;3532;51.118;7.210;2022-09-21T08:08:26;6.87;;;2.10;;
6983;SDS011;3532;51.118;7.210;2022-09-21T08:10:51;4.80;;;1.97;;
6983;SDS011;3532;51.118;7.210;2022-09-21T08:13:18;2.73;;;2.20;;
6983;SDS011;3532;51.118;7.210;2022-09-21T08:15:43;3.50;;;2.00;;
6983;SDS011;3532;51.118;7.210;2022-09-21T08:18:08;3.73;;;1.93;;
6983;SDS011;3532;51.118;7.210;2022-09-21T08:20:34;3.17;;;1.93;;
6983;SDS011;3532;51.118;7.210;2022-09-21T08:22:59;3.70;;;1.70;;
6983;SDS011;3532;51.118;7.210;2022-09-21T08:25:24;4.10;;;2.23;;
6983;SDS011;3532;51.118;7.210;2022-09-21T08:27:51;2.47;;;1.57;;
6983;SDS011;3532;51.118;7.210;2022-09-21T08:30:16;2.63;;;2.00;;
6983;SDS011;3532;51.118;7.210;2022-09-21T08:32:41;2.97;;;2.17;;
6983;SDS011;3532;51.118;7.210;2022-09-21T08:35:07;3.67;;;1.80;;
6983;SDS011;3532;51.118;7.210;2022-09-21T08:37:33;2.10;;;1.90;;
6983;SDS011;3532;51.118;7.210;2022-09-21T08:40:00;4.20;;;2.13;;
6983;SDS011;3532;51.118;7.210;2022-09-21T08:42:41;3.63;;;1.70;;
6983;SDS011;3532;51.118;7.210;2022-09-21T08:45:15;4.63;;;1.93;;
6983;SDS011;3532;51.118;7.210;2022-09-21T08:47:46;7.43;;;2.40;;
6983;SDS011;3532;51.118;7.210;2022-09-21T08:52:52;3.70;;;1.93;;
6983;SDS011;3532;51.118;7.210;2022-09-21T08:55:22;3.07;;;1.80;;
6983;SDS011;3532;51.118;7.210;2022-09-21T08:57:48;3.33;;;2.23;;
6983;SDS011;3532;51.118;7.210;2022-09-21T09:00:15;3.50;;;2.00;;
6983;SDS011;3532;51.118;7.210;2022-09-21T09:02:46;2.37;;;1.40;;
6983;SDS011;3532;51.118;7.210;2022-09-21T09:10:38;3.63;;;1.70;;
6983;SDS011;3532;51.118;7.210;2022-09-21T09:15:56;2.13;;;1.47;;
6983;SDS011;3532;51.118;7.210;2022-09-21T09:21:15;3.40;;;1.70;;
6983;SDS011;3532;51.118;7.210;2022-09-21T09:23:46;2.27;;;1.73;;
6983;SDS011;3532;51.118;7.210;2022-09-21T09:26:15;2.03;;;1.80;;
6983;SDS011;3532;51.118;7.210;2022-09-21T09:28:44;6.00;;;1.73;;
6983;SDS011;3532;51.118;7.210;2022-09-21T09:31:21;2.27;;;1.87;;
6983;SDS011;3532;51.118;7.210;2022-09-21T09:33:56;6.93;;;1.80;;
6983;SDS011;3532;51.118;7.210;2022-09-21T09:36:26;3.63;;;1.70;;
6983;SDS011;3532;51.118;7.210;2022-09-21T09:38:57;4.07;;;2.13;;
6983;SDS011;3532;51.118;7.210;2022-09-21T09:52:43;3.23;;;1.90;;
6983;SDS011;3532;51.118;7.210;2022-09-21T09:55:17;3.23;;;1.60;;
6983;SDS011;3532;51.118;7.210;2022-09-21T09:57:48;3.90;;;2.07;;
6983;SDS011;3532;51.118;7.210;2022-09-21T10:00:15;2.87;;;1.60;;
6983;SDS011;3532;51.118;7.210;2022-09-21T10:02:48;4.87;;;2.40;;
6983;SDS011;3532;51.118;7.210;2022-09-21T10:05:22;1.90;;;1.63;;
6983;SDS011;3532;51.118;7.210;2022-09-21T10:07:48;2.97;;;2.10;;
6983;SDS011;3532;51.118;7.210;2022-09-21T10:10:31;3.67;;;1.80;;
6983;SDS011;3532;51.118;7.210;2022-09-21T10:13:05;1.67;;;1.57;;
6983;SDS011;3532;51.118;7.210;2022-09-21T10:15:40;5.90;;;2.20;;
6983;SDS011;3532;51.118;7.210;2022-09-21T10:18:15;4.30;;;1.90;;
6983;SDS011;3532;51.118;7.210;2022-09-21T10:20:54;4.00;;;2.20;;
6983;SDS011;3532;51.118;7.210;2022-09-21T10:23:24;5.63;;;1.83;;
6983;SDS011;3532;51.118;7.210;2022-09-21T10:25:52;2.70;;;1.63;;
6983;SDS011;3532;51.118;7.210;2022-09-21T10:28:21;3.43;;;1.70;;
6983;SDS011;3532;51.118;7.210;2022-09-21T10:30:47;3.10;;;1.73;;
6983;SDS011;3532;51.118;7.210;2022-09-21T10:33:20;2.43;;;1.87;;
6983;SDS011;3532;51.118;7.210;2022-09-21T10:35:50;6.03;;;2.00;;
6983;SDS011;3532;51.118;7.210;2022-09-21T10:38:17;3.53;;;2.47;;
6983;SDS011;3532;51.118;7.210;2022-09-21T10:40:44;4.53;;;1.93;;
6983;SDS011;3532;51.118;7.210;2022-09-21T10:43:21;3.77;;;1.87;;
6983;SDS011;3532;51.118;7.210;2022-09-21T10:45:51;3.23;;;1.60;;
6983;SDS011;3532;51.118;7.210;2022-09-21T10:48:19;3.97;;;1.77;;
6983;SDS011;3532;51.118;7.210;2022-09-21T10:50:47;2.83;;;1.80;;
6983;SDS011;3532;51.118;7.210;2022-09-21T10:58:27;2.23;;;1.80;;
6983;SDS011;3532;51.118;7.210;2022-09-21T11:00:53;3.67;;;1.93;;
6983;SDS011;3532;51.118;7.210;2022-09-21T11:05:55;3.57;;;1.63;;
6983;SDS011;3532;51.118;7.210;2022-09-21T11:08:24;1.57;;;1.47;;
6983;SDS011;3532;51.118;7.210;2022-09-21T11:13:59;1.63;;;1.40;;
6983;SDS011;3532;51.118;7.210;2022-09-21T11:16:34;4.17;;;1.70;;
6983;SDS011;3532;51.118;7.210;2022-09-21T11:19:12;1.80;;;1.57;;
6983;SDS011;3532;51.118;7.210;2022-09-21T11:21:44;4.40;;;2.00;;
6983;SDS011;3532;51.118;7.210;2022-09-21T11:27:43;3.57;;;1.77;;
6983;SDS011;3532;51.118;7.210;2022-09-21T11:30:10;2.43;;;1.57;;
6983;SDS011;3532;51.118;7.210;2022-09-21T11:40:58;2.00;;;1.60;;
6983;SDS011;3532;51.118;7.210;2022-09-21T11:57:04;2.23;;;1.40;;
6983;SDS011;3532;51.118;7.210;2022-09-21T12:08:23;4.33;;;1.60;;
6983;SDS011;3532;51.118;7.210;2022-09-21T12:13:54;2.10;;;1.57;;
6983;SDS011;3532;51.118;7.210;2022-09-21T12:16:37;2.10;;;1.57;;
6983;SDS011;3532;51.118;7.210;2022-09-21T12:19:12;2.27;;;1.83;;
6983;SDS011;3532;51.118;7.210;2022-09-21T12:22:08;2.30;;;1.40;;
6983;SDS011;3532;51.118;7.210;2022-09-21T12:24:39;1.97;;;1.60;;
6983;SDS011;3532;51.118;7.210;2022-09-21T12:27:16;3.13;;;1.80;;
6983;SDS011;3532;51.118;7.210;2022-09-21T12:30:18;1.60;;;1.50;;
6983;SDS011;3532;51.118;7.210;2022-09-21T12:35:36;3.37;;;1.70;;
6983;SDS011;3532;51.118;7.210;2022-09-21T12:38:14;2.87;;;1.63;;
6983;SDS011;3532;51.118;7.210;2022-09-21T12:41:03;1.93;;;1.73;;
6983;SDS011;3532;51.118;7.210;2022-09-21T12:46:45;5.33;;;2.10;;
6983;SDS011;3532;51.118;7.210;2022-09-21T12:49:14;2.07;;;1.23;;
6983;SDS011;3532;51.118;7.210;2022-09-21T12:51:54;5.17;;;2.30;;
6983;SDS011;3532;51.118;7.210;2022-09-21T12:57:54;2.07;;;1.87;;
6983;SDS011;3532;51.118;7.210;2022-09-21T13:00:26;3.00;;;1.50;;
6983;SDS011;3532;51.118;7.210;2022-09-21T13:02:57;1.57;;;1.47;;
6983;SDS011;3532;51.118;7.210;2022-09-21T13:08:13;2.10;;;1.50;;
6983;SDS011;3532;51.118;7.210;2022-09-21T13:13:06;2.90;;;1.90;;
6983;SDS011;3532;51.118;7.210;2022-09-21T13:15:43;3.03;;;1.87;;
6983;SDS011;3532;51.118;7.210;2022-09-21T13:18:18;1.77;;;1.60;;
6983;SDS011;3532;51.118;7.210;2022-09-21T13:20:46;3.37;;;2.17;;
6983;SDS011;3532;51.118;7.210;2022-09-21T13:23:15;1.97;;;1.67;;
6983;SDS011;3532;51.118;7.210;2022-09-21T13:25:46;2.57;;;1.87;;
6983;SDS011;3532;51.118;7.210;2022-09-21T13:35:51;2.87;;;2.23;;
6983;SDS011;3532;51.118;7.210;2022-09-21T13:41:20;1.30;;;1.17;;
6983;SDS011;3532;51.118;7.210;2022-09-21T13:51:52;1.47;;;1.30;;
6983;SDS011;3532;51.118;7.210;2022-09-21T13:55:14;5.43;;;2.20;;
6983;SDS011;3532;51.118;7.210;2022-09-21T14:08:11;3.10;;;2.03;;
6983;SDS011;3532;51.118;7.210;2022-09-21T14:10:49;5.93;;;2.03;;
6983;SDS011;3532;51.118;7.210;2022-09-21T14:13:33;2.00;;;1.70;;
6983;SDS011;3532;51.118;7.210;2022-09-21T14:18:58;3.20;;;1.83;;
6983;SDS011;3532;51.118;7.210;2022-09-21T14:24:45;3.80;;;1.97;;
6983;SDS011;3532;51.118;7.210;2022-09-21T14:35:46;4.00;;;1.70;;
6983;SDS011;3532;51.118;7.210;2022-09-21T14:38:18;3.63;;;1.90;;
6983;SDS011;3532;51.118;7.210;2022-09-21T14:40:48;2.70;;;1.67;;
6983;SDS011;3532;51.118;7.210;2022-09-21T14:43:19;6.87;;;2.00;;
6983;SDS011;3532;51.118;7.210;2022-09-21T14:56:54;3.43;;;2.00;;
6983;SDS011;3532;51.118;7.210;2022-09-21T15:04:53;5.03;;;2.60;;
6983;SDS011;3532;51.118;7.210;2022-09-21T15:07:28;4.40;;;1.83;;
6983;SDS011;3532;51.118;7.210;2022-09-21T15:10:24;4.67;;;2.37;;
6983;SDS011;3532;51.118;7.210;2022-09-21T15:18:43;6.53;;;2.57;;
6983;SDS011;3532;51.118;7.210;2022-09-21T15:21:24;3.20;;;2.00;;
6983;SDS011;3532;51.118;7.210;2022-09-21T15:23:51;4.97;;;2.00;;
6983;SDS011;3532;51.118;7.210;2022-09-21T15:26:24;3.00;;;1.70;;
6983;SDS011;3532;51.118;7.210;2022-09-21T15:28:53;2.33;;;1.63;;
6983;SDS011;3532;51.118;7.210;2022-09-21T15:31:20;3.53;;;1.93;;
6983;SDS011;3532;51.118;7.210;2022-09-21T15:33:45;3.07;;;2.13;;
6983;SDS011;3532;51.118;7.210;2022-09-21T15:36:22;3.50;;;1.87;;
6983;SDS011;3532;51.118;7.210;2022-09-21T15:38:49;7.87;;;2.07;;
6983;SDS011;3532;51.118;7.210;2022-09-21T15:46:47;2.67;;;1.70;;
6983;SDS011;3532;51.118;7.210;2022-09-21T15:49:15;4.30;;;1.70;;
6983;SDS011;3532;51.118;7.210;2022-09-21T15:51:46;2.90;;;1.50;;
6983;SDS011;3532;51.118;7.210;2022-09-21T15:56:51;3.00;;;2.03;;
6983;SDS011;3532;51.118;7.210;2022-09-21T15:59:18;3.63;;;1.63;;
6983;SDS011;3532;51.118;7.210;2022-09-21T16:01:45;2.40;;;1.93;;
6983;SDS011;3532;51.118;7.210;2022-09-21T16:04:16;1.80;;;1.70;;
6983;SDS011;3532;51.118;7.210;2022-09-21T16:06:56;5.13;;;2.10;;
6983;SDS011;3532;51.118;7.210;2022-09-21T16:11:51;3.20;;;2.00;;
6983;SDS011;3532;51.118;7.210;2022-09-21T16:14:17;4.43;;;1.90;;
6983;SDS011;3532;51.118;7.210;2022-09-21T16:20:16;2.87;;;1.80;;
6983;SDS011;3532;51.118;7.210;2022-09-21T16:22:27;3.47;;;1.90;;
6983;SDS011;3532;51.118;7.210;2022-09-21T16:25:12;2.93;;;1.80;;
6983;SDS011;3532;51.118;7.210;2022-09-21T16:27:55;2.27;;;1.70;;
6983;SDS011;3532;51.118;7.210;2022-09-21T16:36:02;3.80;;;1.93;;
6983;SDS011;3532;51.118;7.210;2022-09-21T16:38:58;2.37;;;1.80;;
6983;SDS011;3532;51.118;7.210;2022-09-21T16:44:17;2.40;;;1.90;;
6983;SDS011;3532;51.118;7.210;2022-09-21T16:46:45;1.97;;;1.87;;
6983;SDS011;3532;51.118;7.210;2022-09-21T16:49:11;2.10;;;1.77;;
6983;SDS011;3532;51.118;7.210;2022-09-21T16:51:45;3.00;;;2.17;;
6983;SDS011;3532;51.118;7.210;2022-09-21T16:54:12;2.43;;;2.23;;
6983;SDS011;3532;51.118;7.210;2022-09-21T16:56:38;2.73;;;2.00;;
6983;SDS011;3532;51.118;7.210;2022-09-21T16:59:14;3.27;;;1.73;;
6983;SDS011;3532;51.118;7.210;2022-09-21T17:01:41;6.33;;;2.07;;
6983;SDS011;3532;51.118;7.210;2022-09-21T17:04:07;4.37;;;2.30;;
6983;SDS011;3532;51.118;7.210;2022-09-21T17:06:34;3.43;;;2.57;;
6983;SDS011;3532;51.118;7.210;2022-09-21T17:09:09;3.13;;;2.00;;
6983;SDS011;3532;51.118;7.210;2022-09-21T17:11:40;2.87;;;1.67;;
6983;SDS011;3532;51.118;7.210;2022-09-21T17:14:09;4.20;;;1.90;;
6983;SDS011;3532;51.118;7.210;2022-09-21T17:16:39;3.07;;;2.10;;
6983;SDS011;3532;51.118;7.210;2022-09-21T17:19:04;2.00;;;1.67;;
6983;SDS011;3532;51.118;7.210;2022-09-21T17:21:30;2.77;;;1.80;;
6983;SDS011;3532;51.118;7.210;2022-09-21T17:23:55;2.47;;;2.23;;
6983;SDS011;3532;51.118;7.210;2022-09-21T17:26:20;3.80;;;2.07;;
6983;SDS011;3532;51.118;7.210;2022-09-21T17:28:46;4.00;;;2.07;;
6983;SDS011;3532;51.118;7.210;2022-09-21T17:31:12;4.50;;;2.20;;
6983;SDS011;3532;51.118;7.210;2022-09-21T17:33:40;2.47;;;2.07;;
6983;SDS011;3532;51.118;7.210;2022-09-21T17:36:07;3.70;;;2.47;;
6983;SDS011;3532;51.118;7.210;2022-09-21T17:38:37;3.03;;;1.97;;
6983;SDS011;3532;51.118;7.210;2022-09-21T17:41:02;3.33;;;1.97;;
6983;SDS011;3532;51.118;7.210;2022-09-21T17:43:34;4.13;;;2.33;;
6983;SDS011;3532;51.118;7.210;2022-09-21T17:46:09;3.77;;;2.17;;
6983;SDS011;3532;51.118;7.210;2022-09-21T17:48:41;5.00;;;2.33;;
6983;SDS011;3532;51.118;7.210;2022-09-21T17:51:07;4.67;;;2.20;;
6983;SDS011;3532;51.118;7.210;2022-09-21T17:53:32;2.57;;;2.17;;
6983;SDS011;3532;51.118;7.210;2022-09-21T17:55:59;4.50;;;2.30;;
6983;SDS011;3532;51.118;7.210;2022-09-21T17:58:48;3.73;;;2.10;;
6983;SDS011;3532;51.118;7.210;2022-09-21T18:01:21;4.07;;;1.73;;
6983;SDS011;3532;51.118;7.210;2022-09-21T18:03:50;2.80;;;2.10;;
6983;SDS011;3532;51.118;7.210;2022-09-21T18:06:15;4.13;;;2.50;;
6983;SDS011;3532;51.118;7.210;2022-09-21T18:08:41;2.80;;;2.20;;
6983;SDS011;3532;51.118;7.210;2022-09-21T18:25:39;6.10;;;3.33;;
6983;SDS011;3532;51.118;7.210;2022-09-21T18:28:13;5.13;;;3.83;;
6983;SDS011;3532;51.118;7.210;2022-09-21T18:40:00;3.47;;;3.17;;
6983;SDS011;3532;51.118;7.210;2022-09-21T18:42:48;2.93;;;2.60;;
6983;SDS011;3532;51.118;7.210;2022-09-21T18:53:53;6.60;;;3.17;;
6983;SDS011;3532;51.118;7.210;2022-09-21T18:56:23;4.03;;;3.27;;
6983;SDS011;3532;51.118;7.210;2022-09-21T18:58:50;5.33;;;4.07;;
6983;SDS011;3532;51.118;7.210;2022-09-21T19:01:16;8.87;;;6.67;;
6983;SDS011;3532;51.118;7.210;2022-09-21T19:03:44;11.87;;;9.73;;
6983;SDS011;3532;51.118;7.210;2022-09-21T19:12:05;8.70;;;7.80;;
6983;SDS011;3532;51.118;7.210;2022-09-21T19:14:50;7.47;;;6.70;;
6983;SDS011;3532;51.118;7.210;2022-09-21T19:17:43;11.70;;;6.53;;
6983;SDS011;3532;51.118;7.210;2022-09-21T19:23:43;6.70;;;6.03;;
6983;SDS011;3532;51.118;7.210;2022-09-21T19:26:25;7.67;;;6.13;;
6983;SDS011;3532;51.118;7.210;2022-09-21T19:32:05;7.97;;;6.43;;
6983;SDS011;3532;51.118;7.210;2022-09-21T19:34:36;5.83;;;5.30;;
6983;SDS011;3532;51.118;7.210;2022-09-21T19:37:01;7.33;;;5.77;;
6983;SDS011;3532;51.118;7.210;2022-09-21T19:39:26;5.37;;;4.63;;
6983;SDS011;3532;51.118;7.210;2022-09-21T19:47:42;13.57;;;7.70;;
6983;SDS011;3532;51.118;7.210;2022-09-21T19:50:18;12.47;;;9.27;;
6983;SDS011;3532;51.118;7.210;2022-09-21T19:52:46;10.50;;;8.80;;
6983;SDS011;3532;51.118;7.210;2022-09-21T19:55:13;10.90;;;8.20;;